Time;durP1;ratioP1;P1;durP2;ratioP2;P2;SDS_P1;SDS_P2;PMS_P1;PMS_P2;Temp;Humidity;BMP_temperature;BMP_pressure;BME280_temperature;BME280_humidity;BME280_pressure;Samples;Min_cycle;Max_cycle;Signal;HPM_P1;HPM_P2
2021/08/19 11:02:57;;;;;;;2.60;0.80;;;31.50;64.70;;;;;;4791802;29;20097;-78
2021/08/19 11:05:52;;;;;;;4.40;1.23;;;31.80;65.60;;;;;;4765830;29;20905;-78
2021/08/19 11:08:36;;;;;;;1.13;0.90;;;31.70;64.30;;;;;;4775703;29;20047;-82
2021/08/19 11:11:06;;;;;;;1.52;1.00;;;31.70;65.20;;;;;;4774593;29;20058;-82
2021/08/19 11:13:35;;;;;;;1.52;0.90;;;31.70;65.80;;;;;;4758241;29;20521;-80
2021/08/19 11:16:08;;;;;;;2.65;0.95;;;31.90;66.00;;;;;;4758268;29;20513;-83
2021/08/19 11:18:42;;;;;;;4.93;1.20;;;32.20;64.60;;;;;;4771239;29;20050;-84
2021/08/19 11:21:11;;;;;;;1.27;1.13;;;32.40;64.80;;;;;;4761135;29;20051;-80
2021/08/19 11:23:40;;;;;;;1.27;0.90;;;32.40;64.40;;;;;;4781011;29;20063;-81
2021/08/19 11:26:11;;;;;;;1.80;1.00;;;32.50;64.70;;;;;;4767649;29;20045;-83
2021/08/19 11:28:41;;;;;;;3.58;1.45;;;32.60;64.90;;;;;;4786227;29;20051;-83
2021/08/19 11:31:11;;;;;;;1.45;1.00;;;32.80;64.00;;;;;;4776796;29;20065;-85
2021/08/19 11:33:42;;;;;;;5.63;1.27;;;32.90;63.90;;;;;;4772671;29;20088;-83
2021/08/19 11:36:14;;;;;;;2.58;2.15;;;32.90;65.00;;;;;;4773114;29;20055;-79
2021/08/19 11:38:43;;;;;;;2.72;1.48;;;32.80;64.70;;;;;;4772543;29;20054;-80
2021/08/19 11:41:14;;;;;;;1.85;1.38;;;32.80;64.50;;;;;;4768177;29;20051;-85
2021/08/19 11:43:44;;;;;;;4.47;1.38;;;32.80;65.20;;;;;;4790404;29;20395;-83
2021/08/19 11:46:17;;;;;;;2.92;1.02;;;32.80;65.20;;;;;;4776070;30;20127;-77
2021/08/19 11:48:52;;;;;;;1.58;1.05;;;33.00;64.40;;;;;;4791171;29;20082;-83
2021/08/19 11:51:23;;;;;;;2.10;1.42;;;33.10;64.30;;;;;;4768084;29;20047;-80
2021/08/19 11:53:54;;;;;;;2.15;1.30;;;33.10;65.10;;;;;;4783987;29;20410;-79
2021/08/19 11:56:25;;;;;;;2.70;1.40;;;33.10;64.90;;;;;;4773099;29;20047;-79
2021/08/19 11:59:04;;;;;;;2.70;1.38;;;33.20;64.70;;;;;;4782844;29;20055;-79
2021/08/19 12:01:34;;;;;;;1.92;1.23;;;33.40;64.70;;;;;;4768630;29;20518;-78
2021/08/19 12:04:05;;;;;;;1.63;1.00;;;33.30;63.80;;;;;;4784439;29;20102;-75
2021/08/19 12:06:34;;;;;;;2.17;1.30;;;33.40;64.60;;;;;;4783874;29;20094;-76
2021/08/19 12:09:05;;;;;;;3.35;1.70;;;33.50;64.70;;;;;;4783063;29;20125;-76
2021/08/19 12:11:37;;;;;;;2.67;1.70;;;33.50;65.10;;;;;;4780835;29;20046;-76
2021/08/19 12:14:09;;;;;;;1.42;1.08;;;33.50;64.60;;;;;;4776558;29;20070;-76
2021/08/19 12:16:45;;;;;;;1.90;1.40;;;33.50;64.40;;;;;;4764239;29;20047;-76
2021/08/19 12:19:17;;;;;;;1.85;1.35;;;33.60;65.10;;;;;;4772709;29;20146;-85
2021/08/19 12:21:56;;;;;;;1.65;1.20;;;33.50;64.30;;;;;;4790663;29;20055;-76
2021/08/19 12:24:29;;;;;;;2.60;1.25;;;33.40;64.40;;;;;;4771279;29;20071;-77
2021/08/19 12:27:11;;;;;;;3.47;1.40;;;33.60;64.80;;;;;;4784023;29;20051;-76
2021/08/19 12:29:51;;;;;;;2.97;1.67;;;33.90;64.40;;;;;;4773944;29;20059;-76
2021/08/19 12:32:25;;;;;;;3.38;1.80;;;34.10;64.40;;;;;;4774853;29;20038;-78
2021/08/19 12:34:59;;;;;;;2.03;1.10;;;34.10;64.90;;;;;;4768657;30;20066;-76
2021/08/19 12:37:29;;;;;;;1.80;1.30;;;34.20;65.20;;;;;;4776058;29;20256;-75
2021/08/19 12:40:06;;;;;;;2.85;1.60;;;34.40;64.10;;;;;;4772435;29;20110;-76
2021/08/19 12:42:36;;;;;;;1.48;1.30;;;34.70;64.50;;;;;;4782852;29;20050;-75
2021/08/19 12:45:08;;;;;;;3.75;1.33;;;34.70;62.90;;;;;;4793735;29;20518;-76
2021/08/19 12:47:38;;;;;;;2.17;1.70;;;34.60;64.10;;;;;;4775139;29;20076;-75
2021/08/19 12:50:10;;;;;;;4.32;2.00;;;34.70;64.00;;;;;;4790099;29;20050;-76
2021/08/19 12:52:39;;;;;;;2.53;1.42;;;34.70;63.70;;;;;;4751355;30;20043;-75
2021/08/19 12:55:16;;;;;;;2.25;1.17;;;34.80;63.50;;;;;;4759722;29;20366;-75
2021/08/19 12:57:52;;;;;;;2.15;1.27;;;34.90;63.70;;;;;;4769852;29;20051;-76
2021/08/19 13:00:21;;;;;;;;;;;35.10;63.20;;;;;;4775313;29;20497;-76
2021/08/19 13:02:50;;;;;;;1.73;1.15;;;35.00;62.90;;;;;;4779494;29;19933;-78
2021/08/19 13:05:24;;;;;;;4.47;1.40;;;35.00;62.70;;;;;;4768795;29;20058;-77
2021/08/19 13:07:52;;;;;;;1.80;1.30;;;34.90;63.70;;;;;;4780436;29;20528;-77
2021/08/19 13:10:22;;;;;;;2.50;1.38;;;34.70;63.10;;;;;;4766271;29;20047;-81
2021/08/19 13:12:51;;;;;;;2.83;1.60;;;34.30;63.10;;;;;;4782012;29;20044;-78
2021/08/19 13:15:21;;;;;;;3.75;1.65;;;34.30;63.20;;;;;;4787729;29;20046;-76
2021/08/19 13:17:50;;;;;;;3.45;1.80;;;34.50;63.30;;;;;;4774885;29;20085;-77
2021/08/19 13:20:20;;;;;;;3.47;1.60;;;34.80;63.50;;;;;;4786845;29;20077;-75
2021/08/19 13:22:49;;;;;;;1.60;1.10;;;34.90;63.20;;;;;;4763476;29;20053;-74
2021/08/19 13:25:18;;;;;;;2.75;1.60;;;34.70;63.90;;;;;;4784374;29;20051;-74
2021/08/19 13:28:05;;;;;;;2.50;1.65;;;34.80;63.10;;;;;;4777418;29;20047;-75
2021/08/19 13:30:33;;;;;;;3.15;1.80;;;34.90;63.30;;;;;;4772532;29;20034;-76
2021/08/19 13:33:02;;;;;;;2.92;1.52;;;35.00;63.60;;;;;;4762474;29;20542;-75
2021/08/19 13:35:32;;;;;;;1.98;1.50;;;35.20;64.20;;;;;;4785619;29;20411;-76
2021/08/19 13:38:01;;;;;;;2.28;1.67;;;35.40;63.40;;;;;;4789860;29;20126;-76
2021/08/19 13:40:29;;;;;;;2.95;1.48;;;35.60;62.10;;;;;;4782572;29;20174;-76
2021/08/19 13:42:58;;;;;;;2.20;1.45;;;35.20;63.80;;;;;;4780102;29;20102;-76
2021/08/19 13:45:27;;;;;;;4.97;1.65;;;34.90;63.20;;;;;;4781144;29;20075;-75
2021/08/19 13:47:57;;;;;;;2.00;1.27;;;34.80;63.60;;;;;;4768660;29;20042;-75
2021/08/19 13:50:26;;;;;;;2.88;1.40;;;34.70;63.40;;;;;;4760179;29;20138;-76
2021/08/19 13:52:56;;;;;;;2.08;1.40;;;34.90;63.80;;;;;;4773881;29;20047;-76
2021/08/19 13:55:28;;;;;;;1.77;1.38;;;35.20;62.90;;;;;;4790361;29;20603;-76
2021/08/19 13:57:57;;;;;;;2.33;1.60;;;35.70;62.60;;;;;;4789232;29;20140;-76
2021/08/19 14:00:26;;;;;;;1.75;1.45;;;35.70;62.90;;;;;;4786223;29;20487;-76
2021/08/19 14:02:55;;;;;;;4.25;1.95;;;35.80;62.60;;;;;;4773011;29;20055;-76
2021/08/19 14:05:24;;;;;;;2.85;1.80;;;36.00;62.10;;;;;;4775730;29;20124;-77
2021/08/19 14:07:54;;;;;;;2.78;1.55;;;35.90;63.50;;;;;;4768898;29;20043;-77
2021/08/19 14:10:24;;;;;;;2.15;1.48;;;35.60;62.90;;;;;;4778160;29;20067;-77
2021/08/19 14:12:53;;;;;;;2.80;1.70;;;35.90;62.40;;;;;;4787946;29;20051;-77
2021/08/19 14:15:22;;;;;;;4.05;2.15;;;36.50;61.70;;;;;;4781861;29;20558;-77
2021/08/19 14:17:51;;;;;;;3.88;1.85;;;37.10;62.10;;;;;;4782140;29;20055;-76
2021/08/19 14:20:19;;;;;;;5.95;2.08;;;36.80;64.10;;;;;;4781021;29;20073;-77
2021/08/19 14:22:48;;;;;;;4.70;1.77;;;36.50;65.30;;;;;;4754190;30;20120;-77
2021/08/19 14:25:17;;;;;;;2.92;1.50;;;36.10;65.90;;;;;;4781283;29;20503;-77
2021/08/19 14:27:47;;;;;;;2.03;1.75;;;36.30;65.80;;;;;;4778258;29;20051;-77
2021/08/19 14:30:16;;;;;;;4.50;2.00;;;36.20;66.20;;;;;;4766661;29;20047;-78
2021/08/19 14:32:45;;;;;;;3.28;2.08;;;36.10;66.70;;;;;;4772381;29;20127;-79
2021/08/19 14:35:13;;;;;;;2.30;2.10;;;36.50;66.10;;;;;;4771407;29;20066;-77
2021/08/19 14:37:42;;;;;;;5.35;2.58;;;36.80;65.70;;;;;;4757492;29;20518;-77
2021/08/19 14:40:12;;;;;;;5.07;1.90;;;37.00;65.30;;;;;;4770040;29;20126;-77
2021/08/19 14:42:41;;;;;;;3.70;1.83;;;37.10;65.50;;;;;;4771857;29;20458;-78
2021/08/19 14:45:11;;;;;;;3.40;2.13;;;37.20;65.40;;;;;;4783430;29;20051;-79
2021/08/19 14:47:40;;;;;;;4.25;2.10;;;37.20;65.10;;;;;;4769670;29;20055;-78
2021/08/19 14:50:09;;;;;;;4.70;2.08;;;37.40;65.10;;;;;;4782140;29;20049;-79
2021/08/19 14:52:37;;;;;;;3.65;1.77;;;37.40;65.50;;;;;;4766412;29;20090;-80
2021/08/19 14:55:06;;;;;;;4.00;2.00;;;37.40;65.10;;;;;;4793674;29;20146;-78
2021/08/19 14:57:35;;;;;;;5.22;2.00;;;37.50;65.50;;;;;;4770089;29;20114;-80
2021/08/19 15:00:04;;;;;;;4.10;2.17;;;37.20;65.90;;;;;;4765276;29;20055;-79
2021/08/19 15:02:34;;;;;;;3.05;2.40;;;37.10;65.80;;;;;;4771013;29;20278;-76
2021/08/19 15:05:02;;;;;;;4.10;1.80;;;37.30;65.70;;;;;;4777947;29;20386;-80
2021/08/19 15:07:31;;;;;;;4.38;2.00;;;38.00;65.00;;;;;;4779291;29;20085;-76
2021/08/19 15:09:59;;;;;;;2.65;1.95;;;38.10;64.60;;;;;;4784559;29;20113;-80
2021/08/19 15:12:27;;;;;;;5.15;1.75;;;37.80;65.50;;;;;;4768110;29;20371;-79
2021/08/19 15:14:55;;;;;;;2.80;1.77;;;38.10;64.60;;;;;;4764099;29;20149;-79
2021/08/19 15:17:24;;;;;;;3.33;1.98;;;38.50;64.20;;;;;;4784045;29;20078;-77
2021/08/19 15:19:55;;;;;;;4.20;1.85;;;38.50;63.90;;;;;;4786720;29;20043;-77
2021/08/19 15:22:23;;;;;;;2.42;1.65;;;38.60;63.60;;;;;;4760743;29;20047;-76
2021/08/19 15:24:53;;;;;;;3.92;1.92;;;38.80;63.20;;;;;;4784952;29;20054;-75
2021/08/19 15:27:22;;;;;;;3.15;1.75;;;38.50;63.60;;;;;;4783848;29;20047;-80
2021/08/19 15:29:53;;;;;;;3.40;2.00;;;38.10;64.20;;;;;;4777557;29;20055;-82
2021/08/19 15:32:24;;;;;;;2.63;1.83;;;38.30;63.90;;;;;;4767325;29;20138;-79
2021/08/19 15:34:53;;;;;;;4.72;1.92;;;38.70;63.70;;;;;;4782351;29;20051;-80
2021/08/19 15:37:24;;;;;;;4.00;1.88;;;39.30;62.60;;;;;;4770879;29;20075;-78
2021/08/19 15:39:54;;;;;;;11.07;1.88;;;39.40;62.50;;;;;;4772621;29;20047;-81
2021/08/19 15:42:22;;;;;;;3.58;1.65;;;39.30;62.00;;;;;;4782585;29;20099;-78
2021/08/19 15:44:51;;;;;;;5.07;2.20;;;39.50;62.00;;;;;;4758219;29;20406;-79
2021/08/19 15:47:20;;;;;;;3.20;1.75;;;39.80;62.00;;;;;;4756516;30;20175;-78
2021/08/19 15:49:50;;;;;;;3.13;2.20;;;40.10;61.30;;;;;;4773808;29;20136;-79
2021/08/19 15:52:21;;;;;;;3.20;1.92;;;40.30;60.90;;;;;;4767378;29;20099;-78
2021/08/19 15:54:50;;;;;;;3.45;2.10;;;40.10;61.30;;;;;;4763250;29;20055;-78
2021/08/19 15:57:18;;;;;;;6.40;2.20;;;39.60;62.50;;;;;;4765429;29;20047;-79
2021/08/19 15:59:46;;;;;;;2.85;1.88;;;39.50;62.80;;;;;;4787517;29;20134;-79
2021/08/19 16:02:15;;;;;;;2.20;1.92;;;39.40;62.50;;;;;;4781907;29;20055;-78
2021/08/19 16:04:43;;;;;;;4.55;2.28;;;39.40;62.50;;;;;;4788201;29;20132;-78
2021/08/19 16:07:12;;;;;;;4.30;2.38;;;39.40;62.00;;;;;;4791279;29;20054;-86
2021/08/19 16:09:41;;;;;;;3.33;1.77;;;39.40;62.20;;;;;;4761516;29;20043;-83
2021/08/19 16:12:10;;;;;;;3.67;1.95;;;39.30;62.50;;;;;;4778133;29;20076;-78
2021/08/19 16:14:39;;;;;;;3.85;1.92;;;38.90;63.20;;;;;;4761848;29;20148;-79
2021/08/19 16:17:07;;;;;;;3.10;2.17;;;38.90;63.10;;;;;;4783768;29;20577;-78
2021/08/19 16:19:35;;;;;;;2.88;2.13;;;38.50;63.10;;;;;;4778224;29;20104;-89
2021/08/19 16:22:04;;;;;;;6.13;2.20;;;38.60;63.70;;;;;;4772769;29;20126;-86
2021/08/19 16:24:32;;;;;;;5.53;2.10;;;38.50;63.00;;;;;;4793814;29;20108;-83
2021/08/19 16:27:05;;;;;;;3.58;2.10;;;38.70;62.10;;;;;;4771136;29;20576;-83
2021/08/19 16:29:33;;;;;;;2.35;2.13;;;39.10;61.50;;;;;;4769202;29;20541;-81
2021/08/19 16:32:01;;;;;;;6.40;2.50;;;39.20;61.20;;;;;;4788856;29;20051;-78
2021/08/19 16:34:29;;;;;;;3.47;2.30;;;39.20;62.10;;;;;;4780901;29;20058;-77
2021/08/19 16:36:57;;;;;;;5.15;2.42;;;39.60;59.80;;;;;;4784317;29;20141;-77
2021/08/19 16:39:25;;;;;;;3.75;2.22;;;39.90;59.30;;;;;;4774215;29;20096;-77
2021/08/19 16:41:53;;;;;;;3.95;2.33;;;40.00;58.80;;;;;;4766317;29;20055;-77
2021/08/19 16:44:23;;;;;;;4.57;2.42;;;39.90;59.20;;;;;;4770154;29;20502;-78
2021/08/19 16:46:51;;;;;;;4.38;2.15;;;39.60;59.40;;;;;;4754821;30;20079;-78
2021/08/19 16:49:19;;;;;;;3.25;2.13;;;40.00;59.60;;;;;;4784038;29;20569;-76
2021/08/19 16:51:47;;;;;;;2.72;2.15;;;40.40;59.50;;;;;;4769167;29;20044;-77
2021/08/19 16:54:15;;;;;;;3.90;2.10;;;40.20;59.40;;;;;;4770557;29;20572;-78
2021/08/19 16:56:46;;;;;;;3.42;2.22;;;40.50;59.30;;;;;;4760089;29;20067;-78
2021/08/19 16:59:15;;;;;;;5.10;2.15;;;40.90;59.20;;;;;;4778735;29;20043;-78
2021/08/19 17:01:45;;;;;;;6.43;2.50;;;41.00;59.20;;;;;;4784790;29;20089;-77
2021/08/19 17:04:13;;;;;;;3.25;1.90;;;40.40;59.90;;;;;;4779979;29;20049;-77
2021/08/19 17:06:41;;;;;;;3.20;2.00;;;40.50;60.20;;;;;;4792824;29;20561;-77
2021/08/19 17:09:09;;;;;;;4.97;2.10;;;40.60;60.20;;;;;;4771810;29;20459;-77
2021/08/19 17:11:37;;;;;;;3.25;1.80;;;40.60;60.10;;;;;;4768677;29;20054;-76
2021/08/19 17:14:05;;;;;;;4.35;1.98;;;40.20;61.00;;;;;;4763644;29;20047;-76
2021/08/19 17:16:33;;;;;;;6.30;2.38;;;40.00;61.50;;;;;;4781532;29;20319;-77
2021/08/19 17:19:04;;;;;;;3.88;2.65;;;39.80;61.60;;;;;;4779533;29;20896;-77
2021/08/19 17:21:32;;;;;;;3.05;2.70;;;40.00;61.40;;;;;;4767339;29;20047;-77
2021/08/19 17:24:00;;;;;;;6.35;3.58;;;38.90;62.50;;;;;;4778160;29;20154;-77
2021/08/19 17:26:29;;;;;;;3.65;2.50;;;36.60;65.90;;;;;;4788863;29;20047;-77
2021/08/19 17:28:57;;;;;;;5.85;3.50;;;35.40;68.10;;;;;;4772158;29;20055;-77
2021/08/19 17:31:27;;;;;;;6.38;2.42;;;34.90;69.50;;;;;;4774212;29;20061;-77
2021/08/19 17:33:55;;;;;;;7.60;2.47;;;34.50;69.80;;;;;;4786274;29;20112;-77
2021/08/19 17:36:24;;;;;;;7.93;3.15;;;34.10;70.80;;;;;;4786436;29;20490;-77
2021/08/19 17:38:53;;;;;;;5.63;3.03;;;33.90;71.30;;;;;;4786680;29;20063;-77
2021/08/19 17:41:21;;;;;;;10.95;4.13;;;33.60;71.60;;;;;;4790207;29;20576;-77
2021/08/19 17:43:50;;;;;;;10.13;4.15;;;33.30;72.10;;;;;;4788474;29;20099;-77
2021/08/19 17:46:18;;;;;;;6.38;2.72;;;33.20;72.40;;;;;;4775986;29;20085;-77
2021/08/19 17:48:46;;;;;;;6.07;2.63;;;33.00;73.00;;;;;;4770315;29;20138;-76
2021/08/19 17:51:14;;;;;;;7.18;2.85;;;32.80;73.60;;;;;;4789619;29;20051;-76
2021/08/19 17:53:44;;;;;;;5.20;2.10;;;32.70;74.20;;;;;;4780470;29;20539;-76
2021/08/19 17:56:12;;;;;;;4.95;2.60;;;32.40;74.70;;;;;;4767297;29;20504;-75
2021/08/19 17:58:40;;;;;;;5.28;2.05;;;32.20;75.40;;;;;;4777283;29;20054;-76
2021/08/19 18:01:09;;;;;;;4.47;2.35;;;32.10;76.00;;;;;;4783346;29;20055;-76
2021/08/19 18:03:38;;;;;;;4.22;2.40;;;31.90;76.20;;;;;;4773971;29;20477;-76
2021/08/19 18:06:07;;;;;;;4.15;2.35;;;31.70;77.00;;;;;;4786046;29;20051;-76
2021/08/19 18:08:36;;;;;;;4.57;2.10;;;31.50;77.80;;;;;;4785017;29;20133;-76
2021/08/19 18:11:05;;;;;;;4.20;2.20;;;31.30;78.80;;;;;;4786129;29;20047;-76
2021/08/19 18:13:33;;;;;;;4.50;2.22;;;31.10;80.40;;;;;;4790943;29;20086;-76
2021/08/19 18:16:02;;;;;;;3.85;1.98;;;30.90;81.70;;;;;;4788259;29;20062;-77
2021/08/19 18:18:32;;;;;;;3.83;2.35;;;30.60;82.70;;;;;;4772226;29;20051;-76
2021/08/19 18:21:00;;;;;;;4.82;2.40;;;30.30;83.80;;;;;;4782223;29;20042;-76
2021/08/19 18:23:28;;;;;;;5.97;2.50;;;30.20;84.50;;;;;;4771056;29;20039;-76
2021/08/19 18:25:57;;;;;;;5.43;2.28;;;30.00;85.30;;;;;;4754776;29;20074;-79
2021/08/19 18:28:26;;;;;;;5.18;2.50;;;30.00;85.40;;;;;;4793250;29;20122;-80
2021/08/19 18:30:55;;;;;;;3.58;2.65;;;30.00;85.60;;;;;;4788462;29;20318;-80
2021/08/19 18:33:23;;;;;;;4.05;2.50;;;29.80;86.50;;;;;;4791431;29;20047;-80
2021/08/19 18:35:51;;;;;;;4.07;2.33;;;29.70;87.00;;;;;;4780004;29;20146;-80
2021/08/19 18:38:19;;;;;;;8.93;2.78;;;29.70;87.30;;;;;;4770058;29;20045;-81
2021/08/19 18:40:48;;;;;;;5.47;2.53;;;29.50;88.20;;;;;;4771726;29;20608;-78
2021/08/19 18:43:16;;;;;;;3.40;2.25;;;29.40;88.80;;;;;;4774072;29;20047;-79
2021/08/19 18:45:46;;;;;;;6.55;2.22;;;29.40;89.10;;;;;;4776258;29;20051;-79
2021/08/19 18:48:14;;;;;;;6.63;2.72;;;29.40;89.40;;;;;;4776570;29;20043;-76
2021/08/19 18:50:42;;;;;;;8.27;4.38;;;29.30;89.60;;;;;;4788701;29;20078;-79
2021/08/19 18:53:10;;;;;;;7.97;2.92;;;29.20;90.10;;;;;;4765741;29;20049;-77
2021/08/19 18:55:38;;;;;;;8.27;2.92;;;29.10;90.80;;;;;;4789694;29;20530;-77
2021/08/19 18:58:06;;;;;;;7.88;3.42;;;29.00;91.40;;;;;;4763199;30;20518;-76
2021/08/19 19:00:35;;;;;;;6.35;2.65;;;28.90;92.30;;;;;;4791875;29;20429;-75
2021/08/19 19:03:04;;;;;;;6.70;3.60;;;28.80;92.90;;;;;;4767009;29;20517;-77
2021/08/19 19:05:34;;;;;;;5.97;2.80;;;28.80;93.30;;;;;;4787157;29;20059;-76
2021/08/19 19:08:02;;;;;;;8.27;3.17;;;28.80;93.30;;;;;;4768761;29;20062;-75
2021/08/19 19:10:31;;;;;;;5.55;3.38;;;28.80;93.30;;;;;;4792079;29;20047;-76
2021/08/19 19:13:02;;;;;;;5.05;2.92;;;28.80;93.60;;;;;;4768160;29;20079;-76
2021/08/19 19:15:30;;;;;;;5.40;2.85;;;28.80;93.90;;;;;;4773781;29;20137;-78
2021/08/19 19:17:59;;;;;;;6.95;2.80;;;28.70;94.10;;;;;;4792844;29;20066;-76
2021/08/19 19:20:29;;;;;;;4.70;3.00;;;28.60;94.60;;;;;;4786939;29;20558;-76
2021/08/19 19:22:57;;;;;;;6.13;2.88;;;28.60;95.00;;;;;;4787660;29;20069;-77
2021/08/19 19:25:25;;;;;;;7.13;3.10;;;28.50;95.40;;;;;;4789634;29;20126;-76
2021/08/19 19:27:54;;;;;;;5.70;3.05;;;28.40;96.00;;;;;;4785239;29;20131;-75
2021/08/19 19:30:22;;;;;;;4.55;3.33;;;28.30;96.40;;;;;;4784859;29;20039;-76
2021/08/19 19:32:50;;;;;;;6.03;3.38;;;28.20;96.70;;;;;;4792121;29;20047;-85
2021/08/19 19:35:19;;;;;;;5.65;3.25;;;28.20;96.70;;;;;;4776481;29;20529;-86
2021/08/19 19:37:49;;;;;;;7.15;3.92;;;28.10;96.70;;;;;;4771712;29;20050;-85
2021/08/19 19:40:19;;;;;;;4.82;3.65;;;28.00;96.70;;;;;;4756578;29;20104;-85
2021/08/19 19:42:48;;;;;;;6.63;3.50;;;27.90;96.70;;;;;;4787211;29;20054;-89
2021/08/19 19:45:17;;;;;;;5.57;3.67;;;27.80;96.70;;;;;;4766687;29;20133;-87
2021/08/19 19:47:47;;;;;;;5.50;3.95;;;27.70;96.70;;;;;;4785263;29;20198;-86
2021/08/19 19:50:15;;;;;;;6.45;3.40;;;27.80;96.70;;;;;;4786404;29;20055;-85
2021/08/19 19:52:43;;;;;;;8.27;4.15;;;27.90;96.70;;;;;;4771318;29;20055;-86
2021/08/19 19:55:13;;;;;;;4.97;3.60;;;28.00;96.70;;;;;;4800605;29;20096;-84
2021/08/19 19:57:41;;;;;;;7.65;3.83;;;28.00;96.70;;;;;;4794084;29;20153;-85
2021/08/19 20:00:10;;;;;;;6.97;4.03;;;28.00;96.70;;;;;;4778415;29;20043;-85
2021/08/19 20:02:40;;;;;;;7.78;4.00;;;28.00;96.70;;;;;;4789479;29;20061;-85
2021/08/19 20:05:09;;;;;;;4.78;3.65;;;28.00;96.70;;;;;;4786780;29;20055;-84
2021/08/19 20:07:38;;;;;;;7.10;3.50;;;28.00;96.70;;;;;;4792852;29;20054;-84
2021/08/19 20:10:07;;;;;;;7.90;3.70;;;27.90;96.70;;;;;;4784377;29;20078;-83
2021/08/19 20:12:37;;;;;;;9.32;4.03;;;27.80;96.70;;;;;;4753823;29;20072;-82
2021/08/19 20:15:07;;;;;;;7.63;3.83;;;27.70;96.70;;;;;;4763785;29;20071;-82
2021/08/19 20:17:35;;;;;;;9.23;4.50;;;27.70;96.70;;;;;;4775405;29;20504;-83
2021/08/19 20:20:05;;;;;;;7.28;3.92;;;27.60;96.70;;;;;;4768528;29;20043;-85
2021/08/19 20:22:33;;;;;;;6.22;4.00;;;27.50;96.70;;;;;;4772017;29;20075;-84
2021/08/19 20:25:01;;;;;;;7.03;4.10;;;27.50;96.70;;;;;;4761827;29;20054;-83
2021/08/19 20:27:30;;;;;;;5.35;3.83;;;27.40;96.70;;;;;;4772352;29;20045;-86
2021/08/19 20:30:00;;;;;;;6.68;4.05;;;27.40;96.70;;;;;;4772776;29;20043;-84
2021/08/19 20:32:29;;;;;;;6.53;4.00;;;27.50;96.70;;;;;;4778349;29;20057;-85
2021/08/19 20:34:57;;;;;;;6.40;3.63;;;27.50;96.70;;;;;;4775884;29;20053;-86
2021/08/19 20:37:25;;;;;;;7.57;4.60;;;27.50;96.70;;;;;;4779212;29;20051;-84
2021/08/19 20:39:53;;;;;;;6.38;4.15;;;27.50;96.70;;;;;;4766650;29;20047;-82
2021/08/19 20:42:22;;;;;;;6.18;3.90;;;27.50;96.70;;;;;;4796346;29;20155;-85
2021/08/19 20:44:50;;;;;;;6.05;4.30;;;27.40;96.70;;;;;;4792164;29;20402;-87
2021/08/19 20:47:19;;;;;;;6.82;4.00;;;27.40;96.70;;;;;;4770198;29;20113;-87
2021/08/19 20:49:48;;;;;;;8.68;4.53;;;27.30;96.70;;;;;;4769957;30;20119;-83
2021/08/19 20:52:16;;;;;;;8.02;4.68;;;27.10;96.70;;;;;;4769576;30;20043;-83
2021/08/19 20:54:44;;;;;;;6.30;3.83;;;27.00;96.70;;;;;;4800453;29;20055;-79
2021/08/19 20:57:13;;;;;;;6.65;4.10;;;27.00;96.70;;;;;;4773478;29;20142;-84
2021/08/19 20:59:41;;;;;;;6.70;4.22;;;27.00;96.70;;;;;;4772779;29;20550;-83
2021/08/19 21:02:12;;;;;;;6.70;4.45;;;27.00;96.70;;;;;;4769924;29;20058;-83
2021/08/19 21:04:46;;;;;;;6.93;4.05;;;27.10;96.70;;;;;;4767303;29;20491;-82
2021/08/19 21:07:15;;;;;;;6.90;4.45;;;27.00;96.70;;;;;;4786488;29;20147;-82
2021/08/19 21:09:43;;;;;;;8.00;4.55;;;26.90;96.70;;;;;;4766391;29;20043;-82
2021/08/19 21:12:11;;;;;;;8.80;4.13;;;26.90;96.70;;;;;;4772197;29;20069;-83
2021/08/19 21:14:40;;;;;;;9.93;4.47;;;26.80;96.70;;;;;;4787861;29;20086;-85
2021/08/19 21:17:08;;;;;;;9.45;5.03;;;26.90;96.70;;;;;;4764124;29;20055;-82
2021/08/19 21:19:37;;;;;;;8.77;4.35;;;26.90;96.70;;;;;;4791024;29;20438;-82
2021/08/19 21:22:07;;;;;;;7.53;4.65;;;26.90;96.70;;;;;;4761599;29;20546;-82
2021/08/19 21:24:35;;;;;;;8.07;4.57;;;26.90;96.70;;;;;;4779532;29;20482;-83
2021/08/19 21:27:04;;;;;;;6.82;4.47;;;26.90;96.70;;;;;;4769376;29;20058;-81
2021/08/19 21:29:33;;;;;;;6.78;4.97;;;26.80;96.70;;;;;;4767706;29;20148;-82
2021/08/19 21:32:03;;;;;;;8.10;4.40;;;26.90;96.70;;;;;;4784327;29;20055;-82
2021/08/19 21:34:31;;;;;;;6.68;4.47;;;26.80;96.70;;;;;;4777061;29;20251;-82
2021/08/19 21:36:59;;;;;;;8.30;4.40;;;26.60;96.70;;;;;;4774248;29;20500;-87
2021/08/19 21:39:29;;;;;;;7.78;5.03;;;26.50;96.70;;;;;;4790914;29;20047;-86
2021/08/19 21:41:57;;;;;;;6.15;4.40;;;26.60;96.70;;;;;;4765875;29;20069;-87
2021/08/19 21:44:26;;;;;;;8.00;4.85;;;26.50;96.70;;;;;;4791451;29;20046;-83
2021/08/19 21:46:55;;;;;;;9.27;5.25;;;26.50;96.70;;;;;;4765167;29;20059;-84
2021/08/19 21:49:23;;;;;;;6.57;4.68;;;26.50;96.70;;;;;;4763496;29;20043;-85
2021/08/19 21:51:52;;;;;;;6.45;4.68;;;26.50;96.70;;;;;;4755022;30;20130;-83
2021/08/19 21:54:20;;;;;;;8.35;4.93;;;26.50;96.70;;;;;;4767736;29;20055;-84
2021/08/19 21:56:50;;;;;;;8.48;4.70;;;26.40;96.70;;;;;;4769082;29;20055;-84
2021/08/19 21:59:29;;;;;;;11.02;4.82;;;26.30;96.70;;;;;;4775289;29;20534;-84
2021/08/19 22:01:58;;;;;;;7.10;4.80;;;26.30;96.70;;;;;;4764979;29;20090;-85
2021/08/19 22:04:26;;;;;;;6.10;4.30;;;26.30;96.70;;;;;;4773801;29;20705;-85
2021/08/19 22:06:54;;;;;;;7.35;4.68;;;26.30;96.70;;;;;;4780022;29;20403;-84
2021/08/19 22:09:23;;;;;;;7.68;5.20;;;26.40;96.70;;;;;;4795274;29;20043;-85
2021/08/19 22:11:55;;;;;;;7.47;4.80;;;26.40;96.70;;;;;;4792356;29;20043;-84
2021/08/19 22:14:24;;;;;;;6.13;4.65;;;26.30;96.70;;;;;;4775661;29;20050;-85
2021/08/19 22:16:52;;;;;;;7.18;5.13;;;26.30;96.70;;;;;;4785987;29;20047;-84
2021/08/19 22:19:21;;;;;;;6.75;4.60;;;26.50;96.70;;;;;;4780998;29;20709;-85
2021/08/19 22:21:49;;;;;;;6.90;5.20;;;26.60;96.70;;;;;;4777573;29;20493;-84
2021/08/19 22:24:18;;;;;;;8.48;5.32;;;26.60;96.70;;;;;;4772408;30;20501;-84
2021/08/19 22:26:46;;;;;;;7.38;4.65;;;26.70;96.70;;;;;;4795962;29;20050;-84
2021/08/19 22:29:16;;;;;;;8.23;5.40;;;26.70;96.70;;;;;;4761210;29;20066;-84
2021/08/19 22:31:44;;;;;;;10.90;4.93;;;26.70;96.70;;;;;;4757682;29;20099;-83
2021/08/19 22:34:13;;;;;;;8.07;5.15;;;26.70;96.70;;;;;;4765311;30;20051;-83
2021/08/19 22:36:41;;;;;;;10.18;5.28;;;26.70;96.70;;;;;;4783047;29;20078;-84
2021/08/19 22:39:10;;;;;;;7.28;5.30;;;26.70;96.70;;;;;;4787916;29;20047;-84
2021/08/19 22:41:38;;;;;;;7.50;4.93;;;26.70;96.70;;;;;;4773483;29;20436;-84
2021/08/19 22:44:07;;;;;;;6.18;5.07;;;26.70;96.70;;;;;;4777600;29;20092;-84
2021/08/19 22:46:36;;;;;;;8.40;5.20;;;26.70;96.70;;;;;;4785867;29;20051;-84
2021/08/19 22:49:05;;;;;;;8.18;5.82;;;26.60;96.70;;;;;;4782379;29;20039;-84
2021/08/19 22:51:36;;;;;;;7.90;4.80;;;26.50;96.70;;;;;;4799448;29;20084;-84
2021/08/19 22:54:04;;;;;;;7.97;5.40;;;26.50;96.70;;;;;;4784752;29;20055;-84
2021/08/19 22:56:32;;;;;;;10.07;5.95;;;26.50;96.70;;;;;;4758758;29;20054;-84
2021/08/19 22:59:01;;;;;;;8.90;5.40;;;26.50;96.70;;;;;;4769693;29;20062;-84
2021/08/19 23:01:30;;;;;;;9.23;5.55;;;26.40;96.70;;;;;;4755381;30;20408;-83
2021/08/19 23:04:00;;;;;;;8.02;5.10;;;26.50;96.70;;;;;;4772563;29;20097;-83
2021/08/19 23:06:29;;;;;;;7.82;5.47;;;26.50;96.70;;;;;;4776152;29;20151;-83
2021/08/19 23:08:57;;;;;;;9.23;5.50;;;26.50;96.70;;;;;;4774406;29;20039;-84
2021/08/19 23:11:26;;;;;;;7.75;5.40;;;26.60;96.70;;;;;;4773437;29;20095;-84
2021/08/19 23:13:54;;;;;;;7.18;4.85;;;26.50;96.70;;;;;;4785831;29;20043;-84
2021/08/19 23:16:22;;;;;;;7.18;5.25;;;26.40;96.70;;;;;;4794694;29;20046;-84
2021/08/19 23:18:51;;;;;;;9.15;4.90;;;26.40;96.70;;;;;;4782074;29;20044;-83
2021/08/19 23:21:20;;;;;;;8.23;4.85;;;26.40;96.70;;;;;;4760663;29;20145;-84
2021/08/19 23:23:49;;;;;;;7.80;4.82;;;26.40;96.70;;;;;;4784211;29;20250;-84
2021/08/19 23:26:17;;;;;;;5.38;4.35;;;26.40;96.70;;;;;;4765703;29;20065;-84
2021/08/19 23:28:45;;;;;;;5.68;4.40;;;26.40;96.70;;;;;;4782184;29;20137;-84
2021/08/19 23:31:13;;;;;;;8.25;5.13;;;26.40;96.70;;;;;;4762109;29;20448;-84
2021/08/19 23:33:42;;;;;;;9.85;5.05;;;26.40;96.70;;;;;;4797179;29;20046;-85
2021/08/19 23:36:10;;;;;;;8.35;4.53;;;26.30;96.70;;;;;;4772121;29;20374;-84
2021/08/19 23:38:40;;;;;;;6.70;5.03;;;26.30;96.70;;;;;;4769759;29;20051;-84
2021/08/19 23:41:09;;;;;;;7.55;4.88;;;26.30;96.70;;;;;;4776946;29;20065;-84
2021/08/19 23:43:37;;;;;;;7.47;4.85;;;26.30;96.70;;;;;;4768059;29;20410;-84
2021/08/19 23:46:06;;;;;;;8.00;4.70;;;26.10;96.70;;;;;;4777057;29;20050;-84
2021/08/19 23:48:34;;;;;;;7.72;4.65;;;26.20;96.70;;;;;;4753033;29;20051;-82
2021/08/19 23:51:03;;;;;;;7.35;4.55;;;26.20;96.70;;;;;;4784123;29;20066;-84
2021/08/19 23:53:31;;;;;;;8.77;4.95;;;26.30;96.70;;;;;;4764297;29;20050;-84
2021/08/19 23:56:01;;;;;;;7.30;4.57;;;26.20;96.70;;;;;;4777668;29;20059;-84
2021/08/19 23:58:29;;;;;;;9.35;5.63;;;26.10;96.70;;;;;;4777927;29;20059;-84
